Flinterbrise — PHCA — position and weather

sailwx.info

Track history (hours):
 
Tides and Currents Weather Stations Pressure Air Temp Water Temp Dewpoint Dewpoint Depression Visibility Wind Speed Wind Dir Waves Ship Positions

Flinterbrise

Last reported at 2014-Nov-22 16:33 UTC. Time now 2014-Nov-27 00:11 UTC.
Position N 55°30' E 015°03'.

Length 82 m; draft 5.6 m.

Type: Ship. MMSI: 246044000.

Date/timePositionNaut miles runAvg speedWind from/ knotsBaromVisibWave heightAir tempDewpointWater temp
2014-Nov-22 16:33N 55°30' E 015°03'9 9.3
2014-Nov-22 15:33N 55°26' E 014°48'10 9.4
2014-Nov-22 14:32N 55°20' E 014°35'10 9.2
2014-Nov-22 13:25N 55°12' E 014°24'75 9.3
2014-Nov-22 05:20N 54°38' E 012°27'16 8.6
2014-Nov-22 03:28N 54°25' E 012°11'9 9.3
2014-Nov-22 02:32N 54°23' E 011°57'9 9.1
2014-Nov-22 01:33N 54°18' E 011°44'19 9.3
2014-Nov-21 23:32N 54°03' E 011°25'7 7.4
2014-Nov-21 22:33N 53°56' E 011°25'2 1.9
2014-Nov-21 21:32N 53°54' E 011°28'0 0.0
2014-Nov-21 20:32N 53°54' E 011°28'0 0.0
2014-Nov-21 19:32N 53°54' E 011°28'0 0.0
2014-Nov-21 18:32N 53°54' E 011°28'0 0.0
2014-Nov-21 17:32N 53°54' E 011°28'0 0.0
2014-Nov-21 16:32N 53°54' E 011°28'0 0.0
2014-Nov-21 15:32N 53°54' E 011°28'0 0.0
2014-Nov-21 14:32N 53°54' E 011°28'0 0.0
2014-Nov-21 13:32N 53°54' E 011°28'0 0.0
2014-Nov-21 12:32N 53°54' E 011°28'0 0.0
2014-Nov-21 11:32N 53°54' E 011°28'0 0.0
2014-Nov-21 10:33N 53°54' E 011°28'0 0.0
2014-Nov-21 09:33N 53°54' E 011°28'0 0.0
2014-Nov-21 08:33N 53°54' E 011°28'0 0.0
2014-Nov-21 07:33N 53°54' E 011°28'0 0.0
2014-Nov-21 06:33N 53°54' E 011°28'0 0.0
2014-Nov-21 05:33N 53°54' E 011°28'0 0.0
2014-Nov-21 04:33N 53°54' E 011°28'0 0.0
2014-Nov-21 03:33N 53°54' E 011°28'0 0.0
2014-Nov-21 02:33N 53°54' E 011°28'0 0.0
2014-Nov-21 01:33N 53°54' E 011°28'0 0.0
2014-Nov-21 00:33N 53°54' E 011°28'0 0.0
2014-Nov-20 23:33N 53°54' E 011°28'0 0.0
2014-Nov-20 22:33N 53°54' E 011°28'0 0.0
2014-Nov-20 21:30N 53°54' E 011°28'0 0.0
2014-Nov-20 20:33N 53°54' E 011°28'0 0.0
2014-Nov-20 19:33N 53°54' E 011°28'0 0.0
2014-Nov-20 18:33N 53°54' E 011°28'0 0.0
2014-Nov-20 17:33N 53°54' E 011°28'0 0.0
2014-Nov-20 16:33N 53°54' E 011°28'0 0.0
2014-Nov-20 15:33N 53°54' E 011°28'0 0.0
2014-Nov-20 14:33N 53°54' E 011°28'0 0.0
2014-Nov-20 13:33N 53°54' E 011°28'0 0.0
2014-Nov-20 12:33N 53°54' E 011°28'0 0.0
2014-Nov-20 11:33N 53°54' E 011°28'0 0.0
2014-Nov-20 10:33N 53°54' E 011°28'0 0.0
2014-Nov-20 09:33N 53°54' E 011°28'0 0.0
2014-Nov-20 08:33N 53°54' E 011°28'0 0.0
2014-Nov-20 07:30N 53°54' E 011°28'0 0.0
2014-Nov-20 06:33N 53°54' E 011°28'7 7.1
2014-Nov-20 05:33N 53°60' E 011°20'  
2014-Nov-17 18:33N 54°30' E 011°38'9 8.5
2014-Nov-17 17:33N 54°27' E 011°51'9 8.7
2014-Nov-17 16:33N 54°27' E 012°06'89 8.9
2014-Nov-17 06:30N 55°14' E 014°18'9 9.1
2014-Nov-17 05:31N 55°21' E 014°28'9 8.8
2014-Nov-17 04:29N 55°28' E 014°38'9 8.8
2014-Nov-17 03:31N 55°32' E 014°51'9 8.8
2014-Nov-17 02:30N 55°37' E 015°05'44 8.9
2014-Nov-16 21:33N 55°59' E 016°13'96 7.9
2014-Nov-16 09:22N 57°23' E 017°36'  
Track history (hours):
 
Tides and Currents Weather Stations Pressure Air Temp Water Temp Dewpoint Dewpoint Depression Visibility Wind Speed Wind Dir Waves Ship Positions

Flinterbrise

Last reported at 2014-Nov-22 16:33 UTC. Time now 2014-Nov-27 00:11 UTC.
Position N 55°30' E 015°03'.

Length 82 m; draft 5.6 m.

Type: Ship. MMSI: 246044000.

Date/timePositionNaut miles runAvg speedWind from/ knotsBaromVisibWave heightAir tempDewpointWater temp
2014-Nov-22 16:33N 55°30' E 015°03'9 9.3
2014-Nov-22 15:33N 55°26' E 014°48'10 9.4
2014-Nov-22 14:32N 55°20' E 014°35'10 9.2
2014-Nov-22 13:25N 55°12' E 014°24'75 9.3
2014-Nov-22 05:20N 54°38' E 012°27'16 8.6
2014-Nov-22 03:28N 54°25' E 012°11'9 9.3
2014-Nov-22 02:32N 54°23' E 011°57'9 9.1
2014-Nov-22 01:33N 54°18' E 011°44'19 9.3
2014-Nov-21 23:32N 54°03' E 011°25'7 7.4
2014-Nov-21 22:33N 53°56' E 011°25'2 1.9
2014-Nov-21 21:32N 53°54' E 011°28'0 0.0
2014-Nov-21 20:32N 53°54' E 011°28'0 0.0
2014-Nov-21 19:32N 53°54' E 011°28'0 0.0
2014-Nov-21 18:32N 53°54' E 011°28'0 0.0
2014-Nov-21 17:32N 53°54' E 011°28'0 0.0
2014-Nov-21 16:32N 53°54' E 011°28'0 0.0
2014-Nov-21 15:32N 53°54' E 011°28'0 0.0
2014-Nov-21 14:32N 53°54' E 011°28'0 0.0
2014-Nov-21 13:32N 53°54' E 011°28'0 0.0
2014-Nov-21 12:32N 53°54' E 011°28'0 0.0
2014-Nov-21 11:32N 53°54' E 011°28'0 0.0
2014-Nov-21 10:33N 53°54' E 011°28'0 0.0
2014-Nov-21 09:33N 53°54' E 011°28'0 0.0
2014-Nov-21 08:33N 53°54' E 011°28'0 0.0
2014-Nov-21 07:33N 53°54' E 011°28'0 0.0
2014-Nov-21 06:33N 53°54' E 011°28'0 0.0
2014-Nov-21 05:33N 53°54' E 011°28'0 0.0
2014-Nov-21 04:33N 53°54' E 011°28'0 0.0
2014-Nov-21 03:33N 53°54' E 011°28'0 0.0
2014-Nov-21 02:33N 53°54' E 011°28'0 0.0
2014-Nov-21 01:33N 53°54' E 011°28'0 0.0
2014-Nov-21 00:33N 53°54' E 011°28'0 0.0
2014-Nov-20 23:33N 53°54' E 011°28'0 0.0
2014-Nov-20 22:33N 53°54' E 011°28'0 0.0
2014-Nov-20 21:30N 53°54' E 011°28'0 0.0
2014-Nov-20 20:33N 53°54' E 011°28'0 0.0
2014-Nov-20 19:33N 53°54' E 011°28'0 0.0
2014-Nov-20 18:33N 53°54' E 011°28'0 0.0
2014-Nov-20 17:33N 53°54' E 011°28'0 0.0
2014-Nov-20 16:33N 53°54' E 011°28'0 0.0
2014-Nov-20 15:33N 53°54' E 011°28'0 0.0
2014-Nov-20 14:33N 53°54' E 011°28'0 0.0
2014-Nov-20 13:33N 53°54' E 011°28'0 0.0
2014-Nov-20 12:33N 53°54' E 011°28'0 0.0
2014-Nov-20 11:33N 53°54' E 011°28'0 0.0
2014-Nov-20 10:33N 53°54' E 011°28'0 0.0
2014-Nov-20 09:33N 53°54' E 011°28'0 0.0
2014-Nov-20 08:33N 53°54' E 011°28'0 0.0
2014-Nov-20 07:30N 53°54' E 011°28'0 0.0
2014-Nov-20 06:33N 53°54' E 011°28'7 7.1
2014-Nov-20 05:33N 53°60' E 011°20'  
2014-Nov-17 18:33N 54°30' E 011°38'9 8.5
2014-Nov-17 17:33N 54°27' E 011°51'9 8.7
2014-Nov-17 16:33N 54°27' E 012°06'89 8.9
2014-Nov-17 06:30N 55°14' E 014°18'9 9.1
2014-Nov-17 05:31N 55°21' E 014°28'9 8.8
2014-Nov-17 04:29N 55°28' E 014°38'9 8.8
2014-Nov-17 03:31N 55°32' E 014°51'9 8.8
2014-Nov-17 02:30N 55°37' E 015°05'44 8.9
2014-Nov-16 21:33N 55°59' E 016°13'96 7.9
2014-Nov-16 09:22N 57°23' E 017°36'  

Dump ship's entire track history